Time;durP1;ratioP1;P1;durP2;ratioP2;P2;SDS_P1;SDS_P2;PMS_P1;PMS_P2;Temp;Humidity;BMP_temperature;BMP_pressure;BME280_temperature;BME280_humidity;BME280_pressure;Samples;Min_cycle;Max_cycle;Signal;HPM_P1;HPM_P2
2023/05/29 00:02:24;;;;;;;14.20;12.80;;;;;;;16.38;100.00;100835.45;105161;1274;60176;-83
2023/05/29 00:04:53;;;;;;;15.30;13.80;;;;;;;16.40;100.00;100832.34;105087;1273;72872;-83
2023/05/29 00:07:20;;;;;;;15.00;13.40;;;;;;;16.41;100.00;100829.39;105559;1276;62787;-83
2023/05/29 00:09:47;;;;;;;15.20;12.60;;;;;;;16.44;100.00;100833.39;105370;1274;72518;-83
2023/05/29 00:12:14;;;;;;;12.80;10.50;;;;;;;16.46;100.00;100833.58;105353;1274;60784;-83
2023/05/29 00:14:41;;;;;;;12.50;10.00;;;;;;;16.49;100.00;100833.52;104460;1273;59692;-84
2023/05/29 00:17:09;;;;;;;10.60;9.40;;;;;;;16.51;100.00;100835.61;104283;1275;72898;-85
2023/05/29 00:19:37;;;;;;;11.20;8.10;;;;;;;16.53;100.00;100834.20;104299;1276;63805;-84
2023/05/29 00:22:04;;;;;;;9.10;7.60;;;;;;;16.55;100.00;100830.32;104354;1272;73351;-84
2023/05/29 00:24:31;;;;;;;8.10;7.30;;;;;;;16.57;100.00;100829.48;104301;1274;61708;-84
2023/05/29 00:26:58;;;;;;;14.50;8.20;;;;;;;16.60;100.00;100833.34;104274;1274;60094;-83
2023/05/29 00:29:25;;;;;;;13.90;7.70;;;;;;;16.62;100.00;100835.98;104145;1278;73127;-87
2023/05/29 00:31:53;;;;;;;9.20;7.40;;;;;;;16.63;100.00;100838.38;104311;1276;62641;-85
2023/05/29 00:34:22;;;;;;;7.60;6.80;;;;;;;16.65;100.00;100837.69;104457;1276;73424;-86
2023/05/29 00:36:52;;;;;;;7.40;6.60;;;;;;;16.67;100.00;100835.73;104327;1277;62023;-84
2023/05/29 00:39:18;;;;;;;14.90;6.20;;;;;;;16.65;100.00;100835.37;104539;1276;59666;-86
2023/05/29 00:41:45;;;;;;;7.60;6.50;;;;;;;16.63;100.00;100831.83;104348;1275;73004;-84
2023/05/29 00:44:14;;;;;;;12.80;5.80;;;;;;;16.59;100.00;100839.02;104181;1274;62482;-86
2023/05/29 00:46:41;;;;;;;9.90;5.10;;;;;;;16.54;100.00;100840.62;104528;1275;71345;-85
2023/05/29 00:49:08;;;;;;;5.60;4.80;;;;;;;16.50;100.00;100843.63;104545;1275;62110;-87
2023/05/29 00:51:36;;;;;;;6.70;5.20;;;;;;;16.47;100.00;100843.72;105029;1276;60061;-85
2023/05/29 00:54:07;;;;;;;7.60;5.20;;;;;;;16.45;100.00;100848.80;104335;1277;72228;-83
2023/05/29 00:56:35;;;;;;;5.50;4.80;;;;;;;16.43;100.00;100854.45;104296;1276;63895;-84
2023/05/29 00:59:01;;;;;;;6.70;4.70;;;;;;;16.42;100.00;100851.55;104240;1273;72857;-83
2023/05/29 01:01:31;;;;;;;9.20;4.30;;;;;;;16.40;100.00;100852.38;104291;1276;61799;-83
2023/05/29 01:03:58;;;;;;;6.40;4.00;;;;;;;16.39;100.00;100853.70;104183;1274;59701;-84
2023/05/29 01:06:26;;;;;;;6.80;3.60;;;;;;;16.38;100.00;100855.77;104459;1279;72979;-85
2023/05/29 01:08:53;;;;;;;4.30;3.70;;;;;;;16.36;100.00;100857.09;104550;1277;63909;-86
2023/05/29 01:11:36;;;;;;;8.40;3.60;;;;;;;16.35;100.00;100857.59;104508;1275;72776;-83
2023/05/29 01:14:07;;;;;;;5.80;3.90;;;;;;;16.30;100.00;100859.69;104366;1274;60472;-85
2023/05/29 01:16:49;;;;;;;8.50;4.10;;;;;;;16.26;100.00;100857.39;104240;1276;59780;-86
2023/05/29 01:19:41;;;;;;;4.60;3.90;;;;;;;16.24;100.00;100860.41;104450;1274;70721;-84
2023/05/29 01:22:15;;;;;;;8.50;4.70;;;;;;;16.22;100.00;100862.67;104188;1276;63448;-86
2023/05/29 01:25:07;;;;;;;6.90;3.10;;;;;;;16.21;100.00;100862.23;104225;1274;72550;-85
2023/05/29 01:27:35;;;;;;;4.80;3.20;;;;;;;16.19;100.00;100864.00;104338;1274;62040;-85
2023/05/29 01:30:02;;;;;;;6.70;4.50;;;;;;;16.17;100.00;100860.44;104417;1274;60129;-84
2023/05/29 01:32:30;;;;;;;8.00;3.60;;;;;;;16.16;100.00;100855.91;104416;1276;72880;-88
2023/05/29 01:34:57;;;;;;;6.90;3.90;;;;;;;16.16;100.00;100854.30;104457;1274;62891;-86
2023/05/29 01:37:23;;;;;;;4.00;3.10;;;;;;;16.17;100.00;100860.06;104407;1273;71571;-82
2023/05/29 01:39:51;;;;;;;5.30;3.30;;;;;;;16.14;100.00;100858.16;104365;1274;61931;-83
2023/05/29 01:42:18;;;;;;;5.70;4.20;;;;;;;16.09;100.00;100857.54;104953;1273;60387;-82
2023/05/29 01:44:45;;;;;;;3.90;3.40;;;;;;;16.04;100.00;100858.65;106985;1275;72474;-83
2023/05/29 01:47:15;;;;;;;4.00;3.30;;;;;;;16.00;100.00;100858.46;104492;1276;62501;-83
2023/05/29 01:49:43;;;;;;;8.30;2.40;;;;;;;15.97;100.00;100857.59;104168;1273;72829;-85
2023/05/29 01:52:10;;;;;;;5.20;3.20;;;;;;;15.93;100.00;100858.44;104260;1274;60584;-87
2023/05/29 01:54:38;;;;;;;3.40;2.70;;;;;;;15.88;100.00;100859.33;104160;1274;60577;-84
2023/05/29 01:57:06;;;;;;;6.00;3.40;;;;;;;15.86;100.00;100863.34;104147;1279;73658;-83
2023/05/29 01:59:33;;;;;;;3.80;2.80;;;;;;;15.84;100.00;100860.34;104970;1274;63704;-82
2023/05/29 02:02:07;;;;;;;7.40;3.40;;;;;;;15.83;100.00;100858.50;107303;1273;71515;-82
2023/05/29 02:04:34;;;;;;;9.40;3.90;;;;;;;15.82;100.00;100860.33;107986;1273;59753;-83
2023/05/29 02:07:02;;;;;;;8.20;3.40;;;;;;;15.83;100.00;100857.13;108074;1272;58893;-82
2023/05/29 02:09:30;;;;;;;5.60;3.00;;;;;;;15.83;100.00;100856.23;107879;1273;72662;-82
2023/05/29 02:11:57;;;;;;;13.10;7.80;;;;;;;15.83;100.00;100859.56;107835;1273;62573;-83
2023/05/29 02:14:25;;;;;;;10.10;5.20;;;;;;;15.83;100.00;100860.44;107930;1273;71397;-83
2023/05/29 02:16:52;;;;;;;5.10;2.90;;;;;;;15.84;100.00;100859.30;108218;1272;60766;-83
2023/05/29 02:19:19;;;;;;;5.10;2.70;;;;;;;15.83;100.00;100857.95;108300;1274;58890;-84
2023/05/29 02:21:47;;;;;;;5.80;3.00;;;;;;;15.85;100.00;100860.64;108167;1273;72685;-84
2023/05/29 02:24:13;;;;;;;7.00;3.30;;;;;;;15.88;100.00;100868.89;108202;1274;62413;-85
2023/05/29 02:26:40;;;;;;;10.70;4.30;;;;;;;15.91;100.00;100866.67;108001;1274;71588;-84
2023/05/29 02:29:08;;;;;;;6.40;2.80;;;;;;;15.93;100.00;100868.48;108080;1274;59073;-83
2023/05/29 02:31:35;;;;;;;11.50;3.70;;;;;;;15.96;100.00;100873.73;107576;1274;60567;-83
2023/05/29 02:34:06;;;;;;;3.30;2.90;;;;;;;15.98;100.00;100873.24;106418;1273;73832;-84
2023/05/29 02:36:36;;;;;;;6.40;3.30;;;;;;;16.00;100.00;100875.00;106093;1273;62548;-83
2023/05/29 02:39:05;;;;;;;8.90;2.30;;;;;;;16.01;100.00;100877.02;107741;1273;71267;-82
2023/05/29 02:41:34;;;;;;;6.00;2.40;;;;;;;16.02;100.00;100876.96;107260;1274;60701;-83
2023/05/29 02:44:01;;;;;;;7.10;4.20;;;;;;;16.02;100.00;100879.45;106765;1274;60470;-83
2023/05/29 02:46:28;;;;;;;6.50;3.20;;;;;;;16.01;100.00;100878.27;106312;1276;75230;-82
2023/05/29 02:48:55;;;;;;;7.80;3.80;;;;;;;16.02;100.00;100881.02;106054;1278;62927;-81
2023/05/29 02:51:22;;;;;;;5.50;3.90;;;;;;;16.04;100.00;100887.05;106182;1279;71532;-85
2023/05/29 02:53:49;;;;;;;6.70;2.70;;;;;;;16.04;100.00;100889.48;104686;1277;60741;-87
2023/05/29 02:56:16;;;;;;;5.70;2.90;;;;;;;16.05;100.00;100886.74;104175;1281;60343;-86
2023/05/29 02:58:43;;;;;;;7.30;2.80;;;;;;;16.06;100.00;100890.00;104208;1279;73900;-87
2023/05/29 03:01:10;;;;;;;6.20;2.60;;;;;;;16.08;100.00;100892.70;104261;1279;62588;-84
2023/05/29 03:03:37;;;;;;;4.30;2.00;;;;;;;16.09;100.00;100893.33;104190;1279;72696;-85
2023/05/29 03:06:07;;;;;;;7.30;3.10;;;;;;;16.11;100.00;100896.69;104117;1280;60774;-86
2023/05/29 03:08:35;;;;;;;7.10;3.30;;;;;;;16.12;100.00;100898.92;104124;1275;60516;-84
2023/05/29 03:11:03;;;;;;;6.60;2.70;;;;;;;16.13;100.00;100898.98;104080;1277;72355;-86
2023/05/29 03:13:34;;;;;;;7.70;3.10;;;;;;;16.15;100.00;100896.15;104113;1279;63879;-88
2023/05/29 03:16:04;;;;;;;4.60;2.70;;;;;;;16.18;100.00;100896.66;104132;1279;72654;-87
2023/05/29 03:18:32;;;;;;;7.20;2.70;;;;;;;16.20;100.00;100896.84;104044;1274;61175;-85
2023/05/29 03:21:00;;;;;;;7.90;3.20;;;;;;;16.21;100.00;100898.05;104163;1276;60488;-86
2023/05/29 03:23:27;;;;;;;13.30;5.30;;;;;;;16.19;100.00;100898.73;104074;1279;74051;-85
2023/05/29 03:25:54;;;;;;;6.10;3.60;;;;;;;16.19;100.00;100900.71;104087;1277;63860;-87
2023/05/29 03:28:21;;;;;;;5.00;3.20;;;;;;;16.20;100.00;100902.73;104093;1280;72605;-86
2023/05/29 03:30:48;;;;;;;7.20;2.80;;;;;;;16.21;100.00;100901.55;104210;1280;60584;-88
2023/05/29 03:33:17;;;;;;;6.90;2.60;;;;;;;16.21;100.00;100902.08;104371;1274;60667;-89
2023/05/29 03:36:05;;;;;;;4.90;3.10;;;;;;;16.19;100.00;100899.27;104189;1279;73800;-89
2023/05/29 03:38:33;;;;;;;3.80;2.70;;;;;;;16.18;100.00;100897.72;104361;1274;63783;-87
2023/05/29 03:41:00;;;;;;;7.00;2.90;;;;;;;16.18;100.00;100898.63;104119;1280;72763;-87
2023/05/29 03:43:27;;;;;;;5.20;2.90;;;;;;;16.18;100.00;100901.09;104111;1274;60790;-90
2023/05/29 03:45:54;;;;;;;8.40;2.60;;;;;;;16.21;100.00;100896.28;104298;1274;60587;-89
2023/05/29 03:48:21;;;;;;;11.50;2.20;;;;;;;16.24;100.00;100892.52;104390;1279;73863;-86
2023/05/29 03:50:48;;;;;;;5.20;2.10;;;;;;;16.28;100.00;100892.70;104474;1274;62574;-86
2023/05/29 03:53:19;;;;;;;6.90;2.80;;;;;;;16.35;100.00;100892.50;104408;1279;71470;-85
2023/05/29 03:55:46;;;;;;;5.50;3.30;;;;;;;16.38;100.00;100887.47;104293;1274;60577;-86
2023/05/29 03:58:17;;;;;;;5.70;2.10;;;;;;;16.41;100.00;100891.35;107127;1274;59182;-85
2023/05/29 04:00:45;;;;;;;11.30;3.50;;;;;;;16.41;100.00;100890.44;107277;1274;72432;-85
2023/05/29 04:03:13;;;;;;;9.20;2.70;;;;;;;16.43;100.00;100888.66;105538;1278;62681;-86
2023/05/29 04:05:41;;;;;;;5.10;2.30;;;;;;;16.47;100.00;100886.77;104479;1279;72575;-86
2023/05/29 04:08:13;;;;;;;10.00;2.50;;;;;;;16.51;100.00;100886.40;104489;1279;60812;-86
2023/05/29 04:10:44;;;;;;;4.40;2.30;;;;;;;16.57;100.00;100887.34;104073;1280;60542;-86
2023/05/29 04:13:10;;;;;;;5.00;2.60;;;;;;;16.62;100.00;100888.55;104214;1280;73743;-85
2023/05/29 04:15:41;;;;;;;13.50;3.10;;;;;;;16.69;100.00;100887.16;104227;1280;62762;-86
2023/05/29 04:18:08;;;;;;;5.90;3.20;;;;;;;16.80;100.00;100891.16;104147;1279;72530;-87
2023/05/29 04:20:35;;;;;;;4.20;2.50;;;;;;;16.92;100.00;100893.54;104194;1279;60456;-87
2023/05/29 04:23:02;;;;;;;6.50;2.50;;;;;;;17.00;100.00;100897.67;104248;1279;60498;-89
2023/05/29 04:25:30;;;;;;;8.60;3.10;;;;;;;17.06;100.00;100896.33;104275;1279;73884;-86
2023/05/29 04:27:57;;;;;;;6.20;3.00;;;;;;;17.12;100.00;100901.30;104220;1279;62896;-86
2023/05/29 04:30:24;;;;;;;5.20;2.70;;;;;;;17.16;100.00;100899.84;104219;1279;72368;-86
2023/05/29 04:32:52;;;;;;;5.30;2.60;;;;;;;17.20;100.00;100902.85;104516;1279;62088;-87
2023/05/29 04:35:19;;;;;;;5.30;2.80;;;;;;;17.24;100.00;100908.63;104822;1279;60594;-82
2023/05/29 04:37:53;;;;;;;4.50;2.90;;;;;;;17.28;100.00;100906.13;105857;1279;73960;-85
2023/05/29 04:40:20;;;;;;;8.70;2.40;;;;;;;17.31;100.00;100908.54;104884;1274;64243;-86
2023/05/29 04:42:47;;;;;;;5.10;2.90;;;;;;;17.32;100.00;100913.36;104296;1276;72712;-88
2023/05/29 04:45:14;;;;;;;16.40;3.20;;;;;;;17.33;100.00;100912.11;104060;1275;60477;-87
2023/05/29 04:47:44;;;;;;;7.10;2.70;;;;;;;17.33;100.00;100912.27;104151;1274;60606;-85
2023/05/29 04:50:17;;;;;;;9.70;2.90;;;;;;;17.33;100.00;100916.15;104183;1275;73913;-85
2023/05/29 04:52:44;;;;;;;3.10;2.70;;;;;;;17.34;100.00;100917.80;104161;1279;62649;-87
2023/05/29 04:55:11;;;;;;;7.10;3.90;;;;;;;17.36;100.00;100919.77;104156;1279;71662;-88
2023/05/29 04:57:38;;;;;;;5.40;2.90;;;;;;;17.37;100.00;100919.53;104103;1279;60527;-87
2023/05/29 05:00:14;;;;;;;6.80;2.60;;;;;;;17.37;100.00;100917.38;104121;1274;60511;-87
2023/05/29 05:02:43;;;;;;;4.40;2.60;;;;;;;17.40;100.00;100917.70;104166;1283;72741;-87
2023/05/29 05:05:10;;;;;;;4.70;2.20;;;;;;;17.42;100.00;100922.15;104294;1280;63968;-87
2023/05/29 05:07:38;;;;;;;10.30;3.80;;;;;;;17.43;100.00;100923.11;104129;1274;72739;-90
2023/05/29 05:10:10;;;;;;;4.80;3.60;;;;;;;17.43;100.00;100922.60;104104;1284;60743;-91
2023/05/29 05:12:38;;;;;;;4.80;2.60;;;;;;;17.44;100.00;100921.24;104170;1277;60504;-86
2023/05/29 05:15:05;;;;;;;6.70;3.10;;;;;;;17.47;100.00;100917.75;104221;1280;73715;-89
2023/05/29 05:17:34;;;;;;;5.30;2.70;;;;;;;17.52;100.00;100917.77;104416;1279;63830;-89
2023/05/29 05:20:01;;;;;;;8.30;2.90;;;;;;;17.56;100.00;100918.25;104061;1280;72851;-87
2023/05/29 05:22:32;;;;;;;4.40;2.60;;;;;;;17.62;100.00;100924.69;104384;1274;60489;-86
2023/05/29 05:25:00;;;;;;;6.50;2.80;;;;;;;17.66;100.00;100929.06;104139;1279;60533;-90
2023/05/29 05:27:27;;;;;;;8.00;2.90;;;;;;;17.70;100.00;100925.34;104095;1289;73579;-87
2023/05/29 05:29:54;;;;;;;2.70;2.20;;;;;;;17.77;100.00;100926.34;104105;1274;63881;-90
2023/05/29 05:32:21;;;;;;;8.50;2.80;;;;;;;17.84;100.00;100934.14;104178;1279;72861;-87
2023/05/29 05:34:55;;;;;;;6.70;2.70;;;;;;;17.91;100.00;100930.39;104228;1279;62051;-90
2023/05/29 05:37:23;;;;;;;5.20;2.60;;;;;;;17.97;100.00;100932.11;104220;1279;60596;-87
2023/05/29 05:39:53;;;;;;;7.90;2.70;;;;;;;18.06;100.00;100931.94;104472;1275;73907;-86
2023/05/29 05:42:20;;;;;;;4.70;2.70;;;;;;;18.18;100.00;100933.31;104203;1279;64240;-92
2023/05/29 05:44:52;;;;;;;4.40;2.20;;;;;;;18.31;100.00;100929.37;104370;1280;72637;-89
2023/05/29 05:47:19;;;;;;;5.50;3.10;;;;;;;18.43;100.00;100930.92;104343;1280;60427;-88
2023/05/29 05:49:46;;;;;;;10.80;3.20;;;;;;;18.53;100.00;100932.58;104387;1280;60558;-87
2023/05/29 05:52:13;;;;;;;7.30;2.80;;;;;;;18.62;100.00;100934.77;105460;1279;71912;-86
2023/05/29 05:54:40;;;;;;;5.50;2.70;;;;;;;18.72;100.00;100934.26;104521;1282;63887;-86
2023/05/29 05:57:07;;;;;;;3.30;2.40;;;;;;;18.79;100.00;100934.38;104399;1279;72543;-87
2023/05/29 05:59:36;;;;;;;4.20;2.90;;;;;;;18.83;100.00;100935.02;104343;1274;60539;-90
2023/05/29 06:02:03;;;;;;;5.30;2.80;;;;;;;18.84;100.00;100933.75;104269;1275;60455;-91
2023/05/29 06:04:35;;;;;;;6.30;2.80;;;;;;;18.85;100.00;100927.42;104365;1278;73882;-89
2023/05/29 06:07:03;;;;;;;3.50;2.60;;;;;;;18.89;100.00;100931.13;105211;1280;63785;-85
2023/05/29 06:09:30;;;;;;;7.00;2.60;;;;;;;18.92;100.00;100930.05;104565;1280;71266;-88
2023/05/29 06:11:57;;;;;;;3.90;2.70;;;;;;;18.93;100.00;100931.46;104958;1275;60492;-86
2023/05/29 06:14:24;;;;;;;7.70;2.90;;;;;;;18.98;100.00;100932.14;105374;1279;60602;-89
2023/05/29 06:16:50;;;;;;;4.90;2.00;;;;;;;19.05;100.00;100932.34;104415;1276;74009;-91
2023/05/29 06:19:17;;;;;;;7.40;3.00;;;;;;;19.10;100.00;100929.58;104177;1280;63794;-87
2023/05/29 06:21:53;;;;;;;5.50;3.10;;;;;;;19.12;100.00;100931.40;104295;1280;71434;-87
2023/05/29 06:24:20;;;;;;;3.20;2.60;;;;;;;19.15;100.00;100932.89;104387;1276;60603;-85
2023/05/29 06:26:47;;;;;;;8.40;2.60;;;;;;;19.20;100.00;100929.01;104590;1276;60508;-85
2023/05/29 06:29:16;;;;;;;7.30;2.70;;;;;;;19.27;100.00;100929.87;104665;1278;73437;-89
2023/05/29 06:31:43;;;;;;;18.40;10.40;;;;;;;19.33;100.00;100926.76;104517;1280;64063;-89
2023/05/29 06:34:10;;;;;;;6.60;3.30;;;;;;;19.43;100.00;100926.05;104308;1280;71736;-86
2023/05/29 06:36:40;;;;;;;5.50;3.00;;;;;;;19.52;100.00;100924.88;104940;1280;60568;-88
2023/05/29 06:39:11;;;;;;;4.90;3.10;;;;;;;19.63;100.00;100925.09;104602;1280;60420;-87
2023/05/29 06:41:38;;;;;;;4.80;2.90;;;;;;;19.74;100.00;100925.17;104825;1282;73913;-89
2023/05/29 06:44:06;;;;;;;4.70;2.60;;;;;;;19.87;100.00;100924.42;104390;1284;63948;-86
2023/05/29 06:46:34;;;;;;;7.90;3.00;;;;;;;20.03;100.00;100923.49;104469;1276;72691;-87
2023/05/29 06:49:01;;;;;;;5.70;2.90;;;;;;;20.19;100.00;100924.80;104452;1277;60660;-86
2023/05/29 06:51:33;;;;;;;5.50;3.80;;;;;;;20.34;100.00;100922.11;104653;1275;60533;-87
2023/05/29 06:54:07;;;;;;;5.50;3.20;;;;;;;20.50;100.00;100919.36;104670;1274;73978;-88
2023/05/29 06:56:35;;;;;;;6.70;2.80;;;;;;;20.65;99.94;100923.39;105003;1280;61517;-88
2023/05/29 06:59:03;;;;;;;4.90;2.60;;;;;;;20.81;99.47;100924.33;104478;1280;71534;-86
2023/05/29 07:01:30;;;;;;;5.70;3.40;;;;;;;20.99;99.29;100917.91;104824;1276;60615;-87
2023/05/29 07:04:23;;;;;;;4.50;3.00;;;;;;;21.23;98.48;100913.38;104177;1277;60536;-88
2023/05/29 07:06:51;;;;;;;4.90;2.60;;;;;;;21.50;97.84;100914.94;104289;1280;72777;-87
2023/05/29 07:09:18;;;;;;;5.50;2.30;;;;;;;21.94;98.28;100909.77;104193;1280;64317;-90
2023/05/29 07:11:46;;;;;;;7.20;3.10;;;;;;;22.34;96.80;100913.64;104697;1276;71668;-88
2023/05/29 07:14:14;;;;;;;4.80;2.60;;;;;;;22.67;93.94;100913.48;104938;1276;60475;-89
2023/05/29 07:16:41;;;;;;;4.70;2.60;;;;;;;22.92;89.89;100906.56;105067;1276;60479;-87
2023/05/29 07:19:11;;;;;;;6.70;3.50;;;;;;;23.15;88.40;100903.31;104421;1279;73673;-86
2023/05/29 07:21:49;;;;;;;4.00;2.30;;;;;;;23.40;87.64;100907.38;104807;1277;63790;-87
2023/05/29 07:24:18;;;;;;;8.60;2.40;;;;;;;23.64;84.57;100904.61;104294;1282;72681;-91
2023/05/29 07:26:45;;;;;;;4.80;2.60;;;;;;;24.00;82.90;100897.70;104569;1279;61047;-86
2023/05/29 07:29:13;;;;;;;9.10;3.20;;;;;;;24.54;80.87;100891.05;105030;1279;60388;-90
2023/05/29 07:31:40;;;;;;;11.00;3.40;;;;;;;25.19;77.56;100886.17;106522;1274;72850;-88
2023/05/29 07:34:10;;;;;;;14.80;4.20;;;;;;;25.68;70.25;100885.16;106215;1276;62388;-87
2023/05/29 07:37:03;;;;;;;5.90;2.90;;;;;;;25.92;66.43;100883.38;105894;1274;73250;-87
2023/05/29 07:39:34;;;;;;;6.50;2.90;;;;;;;26.00;60.41;100886.42;106709;1274;59327;-86
2023/05/29 07:42:06;;;;;;;6.20;3.00;;;;;;;25.98;58.33;100886.05;106009;1279;59423;-87
2023/05/29 07:44:33;;;;;;;6.00;3.00;;;;;;;26.00;60.39;100886.58;105282;1279;73119;-91
2023/05/29 07:47:00;;;;;;;4.10;2.60;;;;;;;26.09;56.41;100889.96;105173;1276;61779;-87
2023/05/29 07:49:40;;;;;;;3.10;2.50;;;;;;;26.19;57.55;100888.02;105571;1274;72729;-88
2023/05/29 07:52:08;;;;;;;4.50;2.80;;;;;;;26.28;57.48;100889.48;104873;1281;60589;-87
2023/05/29 07:54:36;;;;;;;4.70;2.60;;;;;;;26.31;56.42;100891.89;104509;1279;60584;-87
2023/05/29 07:57:09;;;;;;;5.20;3.10;;;;;;;26.35;55.85;100888.24;104886;1275;73891;-86
2023/05/29 07:59:37;;;;;;;5.20;2.70;;;;;;;26.38;55.40;100880.20;104237;1274;62463;-87
2023/05/29 08:02:04;;;;;;;3.20;2.90;;;;;;;26.44;54.33;100880.12;104178;1274;72692;-88
2023/05/29 08:04:52;;;;;;;7.20;3.20;;;;;;;26.61;57.35;100872.59;104398;1279;60928;-90
2023/05/29 08:07:20;;;;;;;6.30;3.00;;;;;;;26.87;56.90;100873.95;104216;1277;60593;-88
2023/05/29 08:09:47;;;;;;;7.00;2.90;;;;;;;27.03;56.92;100871.34;104165;1279;74168;-89
2023/05/29 08:12:14;;;;;;;6.20;2.90;;;;;;;27.22;54.98;100867.56;104202;1280;63908;-90
2023/05/29 08:14:43;;;;;;;3.40;2.20;;;;;;;27.42;52.98;100871.66;104305;1277;72650;-89
2023/05/29 08:17:10;;;;;;;3.40;2.50;;;;;;;27.64;52.17;100866.87;104186;1276;61035;-89
2023/05/29 08:19:37;;;;;;;2.70;2.40;;;;;;;27.84;52.76;100869.06;104513;1276;60488;-91
2023/05/29 08:22:05;;;;;;;5.10;2.60;;;;;;;28.04;51.19;100865.64;104343;1276;73713;-89
2023/05/29 08:24:33;;;;;;;9.40;2.70;;;;;;;28.26;50.48;100859.45;104685;1279;64683;-87
2023/05/29 08:27:00;;;;;;;2.60;2.40;;;;;;;28.43;48.03;100857.93;104526;1278;73474;-87
2023/05/29 08:29:28;;;;;;;7.20;2.50;;;;;;;28.60;44.37;100854.96;104392;1279;60725;-88
2023/05/29 08:31:54;;;;;;;2.90;2.40;;;;;;;28.76;43.85;100856.60;104654;1278;60581;-88
2023/05/29 08:34:21;;;;;;;4.50;2.00;;;;;;;28.99;41.52;100851.58;104375;1274;72434;-88
2023/05/29 08:36:51;;;;;;;3.70;2.70;;;;;;;29.16;40.76;100846.70;105070;1279;63979;-88
2023/05/29 08:39:19;;;;;;;5.70;3.50;;;;;;;29.40;40.67;100845.24;105053;1278;72584;-87
2023/05/29 08:42:06;;;;;;;4.60;2.40;;;;;;;29.71;40.53;100846.65;104667;1274;60549;-90
2023/05/29 08:44:34;;;;;;;3.30;2.30;;;;;;;30.05;40.53;100847.90;104744;1274;60491;-87
2023/05/29 08:47:06;;;;;;;3.60;2.30;;;;;;;30.18;40.37;100848.04;104723;1278;74028;-86
2023/05/29 08:49:43;;;;;;;4.70;2.60;;;;;;;30.29;40.02;100857.70;105186;1274;63970;-87
2023/05/29 08:52:50;;;;;;;8.10;2.90;;;;;;;30.38;37.94;100854.74;103513;1294;614659;-86
2023/05/29 08:55:19;;;;;;;5.10;2.70;;;;;;;30.20;35.95;100856.08;105583;1273;60874;-85
2023/05/29 08:57:48;;;;;;;4.60;2.70;;;;;;;30.02;35.64;100852.41;105721;1267;59379;-87
2023/05/29 09:00:18;;;;;;;4.90;2.70;;;;;;;29.88;35.37;100847.85;105471;1273;73162;-86
2023/05/29 09:02:45;;;;;;;2.50;2.30;;;;;;;29.78;35.98;100847.85;105960;1272;62574;-87
2023/05/29 09:05:16;;;;;;;4.60;2.60;;;;;;;29.79;36.02;100846.30;105396;1263;816906;-88
2023/05/29 09:07:49;;;;;;;4.00;2.90;;;;;;;29.90;36.33;100840.77;105954;1263;59681;-86
2023/05/29 09:10:16;;;;;;;3.20;2.40;;;;;;;30.11;36.59;100837.30;106165;1262;60034;-84
2023/05/29 09:12:45;;;;;;;6.30;3.00;;;;;;;30.39;36.18;100832.42;106063;1266;71333;-86
2023/05/29 09:15:22;;;;;;;4.10;2.50;;;;;;;30.70;35.75;100828.76;105971;1264;62156;-86
2023/05/29 09:17:52;;;;;;;4.90;2.20;;;;;;;30.99;35.79;100826.84;105870;1267;71105;-90
2023/05/29 09:20:23;;;;;;;4.10;2.00;;;;;;;31.27;34.39;100826.16;106068;1264;60444;-87
2023/05/29 09:22:57;;;;;;;3.30;2.20;;;;;;;31.46;33.64;100823.11;106051;1270;59776;-88
2023/05/29 09:25:30;;;;;;;4.00;2.70;;;;;;;31.49;33.60;100819.27;106322;1264;73055;-87
2023/05/29 09:28:05;;;;;;;3.20;2.30;;;;;;;31.49;33.33;100817.70;105995;1263;64575;-90
2023/05/29 09:30:43;;;;;;;3.50;2.70;;;;;;;31.47;33.41;100817.55;105413;1263;71219;-86
2023/05/29 09:35:47;;;;;;;6.10;2.30;;;;;;;31.22;33.39;100812.95;103813;1292;600581;-89
2023/05/29 09:38:16;;;;;;;6.30;2.70;;;;;;;30.93;33.90;100811.38;104742;1272;59322;-88
2023/05/29 09:41:05;;;;;;;3.70;2.10;;;;;;;30.63;33.92;100810.77;104732;1272;59309;-89
2023/05/29 09:43:33;;;;;;;3.00;2.40;;;;;;;30.40;34.28;100808.02;105423;1258;72701;-91
2023/05/29 09:46:02;;;;;;;3.50;2.80;;;;;;;30.03;35.39;100805.17;105398;1258;63975;-92
2023/05/29 09:48:30;;;;;;;3.60;2.10;;;;;;;29.73;35.85;100800.98;104955;1256;731440;-88
2023/05/29 09:51:01;;;;;;;7.90;3.40;;;;;;;29.48;36.28;100797.17;105631;1256;59275;-89
2023/05/29 09:53:29;;;;;;;3.60;2.20;;;;;;;29.28;37.56;100799.68;105719;1259;59377;-89
2023/05/29 09:55:57;;;;;;;3.30;2.30;;;;;;;29.19;38.49;100803.02;105813;1254;71249;-89
2023/05/29 09:58:27;;;;;;;5.30;2.20;;;;;;;29.04;38.60;100795.42;105786;1254;63686;-86
2023/05/29 10:00:57;;;;;;;5.20;2.90;;;;;;;29.08;39.00;100789.52;105808;1254;71222;-88
2023/05/29 10:03:25;;;;;;;3.20;2.80;;;;;;;29.30;40.40;100785.09;105748;1257;59673;-89
2023/05/29 10:05:56;;;;;;;3.20;2.00;;;;;;;29.68;41.05;100781.56;105775;1254;59814;-89
2023/05/29 10:08:26;;;;;;;4.10;2.50;;;;;;;30.06;39.36;100776.98;105594;1260;73159;-89
2023/05/29 10:11:01;;;;;;;3.80;2.20;;;;;;;30.32;38.64;100775.46;105906;1259;63777;-86
2023/05/29 10:13:32;;;;;;;4.80;3.20;;;;;;;30.69;37.07;100776.44;105660;1259;72828;-86
2023/05/29 10:15:59;;;;;;;5.30;3.20;;;;;;;30.85;36.44;100784.02;105696;1259;61451;-87
2023/05/29 10:18:32;;;;;;;2.70;2.10;;;;;;;30.76;35.97;100789.79;105672;1254;60210;-87
2023/05/29 10:20:59;;;;;;;16.90;11.10;;;;;;;30.57;36.03;100788.55;105916;1256;71784;-90
2023/05/29 10:23:28;;;;;;;176.70;159.40;;;;;;;30.26;36.89;100786.45;105572;1260;63768;-88
2023/05/29 10:26:11;;;;;;;14.40;9.10;;;;;;;29.88;37.90;100790.15;106040;1257;73028;-88
2023/05/29 10:28:41;;;;;;;6.50;4.20;;;;;;;29.59;37.74;100788.98;105827;1253;59666;-88
2023/05/29 10:31:10;;;;;;;4.90;2.80;;;;;;;29.32;38.96;100780.60;105646;1261;60691;-87
2023/05/29 10:34:01;;;;;;;5.30;3.60;;;;;;;29.11;39.50;100784.48;105679;1254;73076;-87
2023/05/29 10:36:36;;;;;;;6.50;2.70;;;;;;;28.88;40.27;100783.75;105452;1254;62398;-86
2023/05/29 10:39:03;;;;;;;7.10;2.50;;;;;;;28.79;39.79;100780.98;105776;1259;72798;-87
2023/05/29 10:41:33;;;;;;;2.70;2.40;;;;;;;28.65;39.59;100774.79;105739;1254;60531;-92
2023/05/29 10:44:00;;;;;;;7.70;2.70;;;;;;;28.48;40.54;100778.90;105723;1254;59914;-91
2023/05/29 10:46:48;;;;;;;2.70;2.30;;;;;;;28.34;42.48;100779.47;105777;1257;71825;-87
2023/05/29 10:49:21;;;;;;;3.50;2.60;;;;;;;28.17;42.38;100778.93;105765;1256;62714;-87
2023/05/29 10:51:49;;;;;;;5.40;2.80;;;;;;;28.02;41.72;100782.13;105708;1254;73204;-89
2023/05/29 10:54:21;;;;;;;4.50;2.90;;;;;;;27.85;41.39;100779.48;105378;1255;60208;-85
2023/05/29 10:57:17;;;;;;;3.00;2.30;;;;;;;27.68;41.67;100780.27;105711;1258;61095;-89
2023/05/29 10:59:45;;;;;;;;;;;;;;;27.53;42.46;100779.88;105821;1254;73046;-88
2023/05/29 11:02:17;;;;;;;7.40;2.70;;;;;;;27.46;43.31;100772.96;106099;1254;62464;-88
2023/05/29 11:04:47;;;;;;;9.30;6.30;;;;;;;27.43;43.96;100773.69;106467;1253;71690;-90
2023/05/29 11:07:35;;;;;;;3.60;2.10;;;;;;;27.45;44.06;100770.89;106213;1260;59667;-87
2023/05/29 11:10:15;;;;;;;4.10;2.30;;;;;;;27.54;44.49;100773.63;106331;1254;60081;-88
2023/05/29 11:12:55;;;;;;;4.50;2.60;;;;;;;27.56;45.32;100764.18;105752;1257;72109;-92
2023/05/29 11:15:24;;;;;;;3.20;2.10;;;;;;;27.57;46.07;100767.92;105796;1257;63603;-90
2023/05/29 11:17:53;;;;;;;15.70;13.50;;;;;;;27.57;45.69;100767.13;105707;1256;70356;-87
2023/05/29 11:20:42;;;;;;;6.50;3.60;;;;;;;27.54;46.24;100763.18;105725;1257;60365;-90
2023/05/29 11:23:17;;;;;;;3.40;2.80;;;;;;;27.47;46.26;100761.58;105770;1255;60118;-89
2023/05/29 11:25:46;;;;;;;4.00;3.20;;;;;;;27.40;46.74;100758.17;106000;1254;72509;-87
2023/05/29 11:28:14;;;;;;;4.60;2.50;;;;;;;27.31;47.91;100755.10;106096;1255;63723;-88